sensor_id;sensor_type;location;lat;lon;timestamp;P1;durP1;ratioP1;P2;durP2;ratioP2
24261;SDS011;12385;51.412;5.540;2023-08-31T00:02:09;7.75;;;4.05;;
24261;SDS011;12385;51.412;5.540;2023-08-31T00:04:35;7.78;;;4.45;;
24261;SDS011;12385;51.412;5.540;2023-08-31T00:07:01;10.57;;;4.80;;
24261;SDS011;12385;51.412;5.540;2023-08-31T00:09:26;8.15;;;4.40;;
24261;SDS011;12385;51.412;5.540;2023-08-31T00:11:52;8.68;;;4.95;;
24261;SDS011;12385;51.412;5.540;2023-08-31T00:14:18;8.90;;;4.72;;
24261;SDS011;12385;51.412;5.540;2023-08-31T00:16:44;7.68;;;4.78;;
24261;SDS011;12385;51.412;5.540;2023-08-31T00:19:11;9.02;;;5.10;;
24261;SDS011;12385;51.412;5.540;2023-08-31T00:21:38;8.15;;;4.65;;
24261;SDS011;12385;51.412;5.540;2023-08-31T00:24:04;6.38;;;4.85;;
24261;SDS011;12385;51.412;5.540;2023-08-31T00:26:30;7.43;;;4.63;;
24261;SDS011;12385;51.412;5.540;2023-08-31T00:28:56;9.07;;;4.97;;
24261;SDS011;12385;51.412;5.540;2023-08-31T00:31:22;8.70;;;4.68;;
24261;SDS011;12385;51.412;5.540;2023-08-31T00:33:48;8.25;;;5.22;;
24261;SDS011;12385;51.412;5.540;2023-08-31T00:36:14;9.38;;;5.90;;
24261;SDS011;12385;51.412;5.540;2023-08-31T00:38:40;8.70;;;5.38;;
24261;SDS011;12385;51.412;5.540;2023-08-31T00:41:06;9.80;;;5.75;;
24261;SDS011;12385;51.412;5.540;2023-08-31T00:43:32;7.05;;;5.40;;
24261;SDS011;12385;51.412;5.540;2023-08-31T00:45:58;10.07;;;5.40;;
24261;SDS011;12385;51.412;5.540;2023-08-31T00:48:24;10.95;;;5.97;;
24261;SDS011;12385;51.412;5.540;2023-08-31T00:50:51;7.53;;;6.15;;
24261;SDS011;12385;51.412;5.540;2023-08-31T00:53:17;11.02;;;6.28;;
24261;SDS011;12385;51.412;5.540;2023-08-31T00:55:46;12.32;;;6.40;;
24261;SDS011;12385;51.412;5.540;2023-08-31T00:58:12;9.77;;;6.60;;
24261;SDS011;12385;51.412;5.540;2023-08-31T01:17:07;11.05;;;8.25;;
24261;SDS011;12385;51.412;5.540;2023-08-31T01:19:45;9.23;;;7.30;;
24261;SDS011;12385;51.412;5.540;2023-08-31T01:22:16;11.23;;;8.13;;
24261;SDS011;12385;51.412;5.540;2023-08-31T01:24:52;12.43;;;8.20;;
24261;SDS011;12385;51.412;5.540;2023-08-31T01:27:19;11.77;;;8.20;;
24261;SDS011;12385;51.412;5.540;2023-08-31T01:29:45;10.50;;;8.25;;
24261;SDS011;12385;51.412;5.540;2023-08-31T01:32:11;12.35;;;7.90;;
24261;SDS011;12385;51.412;5.540;2023-08-31T01:34:37;11.25;;;8.55;;
24261;SDS011;12385;51.412;5.540;2023-08-31T01:37:06;13.52;;;9.15;;
24261;SDS011;12385;51.412;5.540;2023-08-31T01:42:08;10.43;;;8.57;;
24261;SDS011;12385;51.412;5.540;2023-08-31T01:44:38;14.63;;;9.15;;
24261;SDS011;12385;51.412;5.540;2023-08-31T01:47:05;13.80;;;9.35;;
24261;SDS011;12385;51.412;5.540;2023-08-31T01:49:38;13.25;;;9.68;;
24261;SDS011;12385;51.412;5.540;2023-08-31T01:52:04;14.73;;;9.43;;
24261;SDS011;12385;51.412;5.540;2023-08-31T01:54:30;14.18;;;10.38;;
24261;SDS011;12385;51.412;5.540;2023-08-31T01:56:56;13.20;;;9.70;;
24261;SDS011;12385;51.412;5.540;2023-08-31T01:59:22;14.80;;;10.20;;
24261;SDS011;12385;51.412;5.540;2023-08-31T02:01:48;17.73;;;10.57;;
24261;SDS011;12385;51.412;5.540;2023-08-31T02:04:13;15.88;;;9.93;;
24261;SDS011;12385;51.412;5.540;2023-08-31T02:06:39;14.73;;;9.98;;
24261;SDS011;12385;51.412;5.540;2023-08-31T02:09:05;15.50;;;10.43;;
24261;SDS011;12385;51.412;5.540;2023-08-31T02:11:31;17.88;;;11.52;;
24261;SDS011;12385;51.412;5.540;2023-08-31T02:13:57;22.20;;;10.65;;
24261;SDS011;12385;51.412;5.540;2023-08-31T02:16:23;14.32;;;10.63;;
24261;SDS011;12385;51.412;5.540;2023-08-31T02:18:49;15.80;;;10.45;;
24261;SDS011;12385;51.412;5.540;2023-08-31T02:21:14;12.18;;;10.10;;
24261;SDS011;12385;51.412;5.540;2023-08-31T02:23:40;21.70;;;12.23;;
24261;SDS011;12385;51.412;5.540;2023-08-31T02:26:05;18.63;;;11.52;;
24261;SDS011;12385;51.412;5.540;2023-08-31T02:28:31;17.17;;;11.68;;
24261;SDS011;12385;51.412;5.540;2023-08-31T02:31:01;19.33;;;11.82;;
24261;SDS011;12385;51.412;5.540;2023-08-31T02:33:28;19.48;;;12.23;;
24261;SDS011;12385;51.412;5.540;2023-08-31T02:35:54;17.33;;;11.45;;
24261;SDS011;12385;51.412;5.540;2023-08-31T02:38:20;16.95;;;11.40;;
24261;SDS011;12385;51.412;5.540;2023-08-31T02:40:46;21.35;;;12.82;;
24261;SDS011;12385;51.412;5.540;2023-08-31T02:43:12;18.23;;;13.23;;
24261;SDS011;12385;51.412;5.540;2023-08-31T02:45:38;19.08;;;12.65;;
24261;SDS011;12385;51.412;5.540;2023-08-31T02:48:04;16.92;;;12.10;;
24261;SDS011;12385;51.412;5.540;2023-08-31T02:50:35;20.17;;;13.33;;
24261;SDS011;12385;51.412;5.540;2023-08-31T02:53:02;19.00;;;12.82;;
24261;SDS011;12385;51.412;5.540;2023-08-31T02:55:27;19.90;;;13.43;;
24261;SDS011;12385;51.412;5.540;2023-08-31T02:57:53;21.42;;;14.35;;
24261;SDS011;12385;51.412;5.540;2023-08-31T03:00:19;24.65;;;13.55;;
24261;SDS011;12385;51.412;5.540;2023-08-31T03:02:48;21.58;;;13.48;;
24261;SDS011;12385;51.412;5.540;2023-08-31T03:05:17;19.15;;;13.43;;
24261;SDS011;12385;51.412;5.540;2023-08-31T03:07:43;23.70;;;13.70;;
24261;SDS011;12385;51.412;5.540;2023-08-31T03:10:09;20.88;;;13.95;;
24261;SDS011;12385;51.412;5.540;2023-08-31T03:12:35;20.55;;;13.43;;
24261;SDS011;12385;51.412;5.540;2023-08-31T03:15:01;21.08;;;14.05;;
24261;SDS011;12385;51.412;5.540;2023-08-31T03:17:27;24.90;;;14.57;;
24261;SDS011;12385;51.412;5.540;2023-08-31T03:19:53;22.65;;;14.13;;
24261;SDS011;12385;51.412;5.540;2023-08-31T03:22:19;20.50;;;14.40;;
24261;SDS011;12385;51.412;5.540;2023-08-31T03:24:44;19.00;;;12.93;;
24261;SDS011;12385;51.412;5.540;2023-08-31T03:27:10;24.20;;;14.73;;
24261;SDS011;12385;51.412;5.540;2023-08-31T03:29:35;25.35;;;14.48;;
24261;SDS011;12385;51.412;5.540;2023-08-31T03:32:01;20.52;;;14.65;;
24261;SDS011;12385;51.412;5.540;2023-08-31T03:34:30;26.17;;;14.90;;
24261;SDS011;12385;51.412;5.540;2023-08-31T03:36:57;22.98;;;15.70;;
24261;SDS011;12385;51.412;5.540;2023-08-31T03:39:23;26.33;;;16.05;;
24261;SDS011;12385;51.412;5.540;2023-08-31T03:41:49;27.00;;;16.00;;
24261;SDS011;12385;51.412;5.540;2023-08-31T03:44:15;25.67;;;16.85;;
24261;SDS011;12385;51.412;5.540;2023-08-31T03:46:41;25.65;;;16.10;;
24261;SDS011;12385;51.412;5.540;2023-08-31T03:49:07;26.48;;;15.82;;
24261;SDS011;12385;51.412;5.540;2023-08-31T03:51:33;28.30;;;17.38;;
24261;SDS011;12385;51.412;5.540;2023-08-31T03:53:59;28.67;;;17.55;;
24261;SDS011;12385;51.412;5.540;2023-08-31T03:56:25;23.98;;;16.65;;
24261;SDS011;12385;51.412;5.540;2023-08-31T03:58:51;28.42;;;16.98;;
24261;SDS011;12385;51.412;5.540;2023-08-31T04:01:17;27.85;;;16.92;;
24261;SDS011;12385;51.412;5.540;2023-08-31T04:03:43;23.42;;;16.15;;
24261;SDS011;12385;51.412;5.540;2023-08-31T04:06:09;28.23;;;16.60;;
24261;SDS011;12385;51.412;5.540;2023-08-31T04:08:35;30.27;;;17.77;;
24261;SDS011;12385;51.412;5.540;2023-08-31T04:11:00;27.60;;;17.65;;
24261;SDS011;12385;51.412;5.540;2023-08-31T04:13:26;28.65;;;17.17;;
24261;SDS011;12385;51.412;5.540;2023-08-31T04:15:52;31.27;;;18.50;;
24261;SDS011;12385;51.412;5.540;2023-08-31T04:18:18;25.67;;;16.77;;
24261;SDS011;12385;51.412;5.540;2023-08-31T04:20:51;29.58;;;17.65;;
24261;SDS011;12385;51.412;5.540;2023-08-31T04:23:18;26.33;;;17.58;;
24261;SDS011;12385;51.412;5.540;2023-08-31T04:25:44;28.90;;;19.02;;
24261;SDS011;12385;51.412;5.540;2023-08-31T04:28:11;33.88;;;19.05;;
24261;SDS011;12385;51.412;5.540;2023-08-31T04:30:36;26.42;;;18.65;;
24261;SDS011;12385;51.412;5.540;2023-08-31T04:33:03;29.90;;;18.92;;
24261;SDS011;12385;51.412;5.540;2023-08-31T04:35:31;28.95;;;18.58;;
24261;SDS011;12385;51.412;5.540;2023-08-31T04:37:57;30.33;;;19.23;;
24261;SDS011;12385;51.412;5.540;2023-08-31T04:40:23;28.05;;;19.27;;
24261;SDS011;12385;51.412;5.540;2023-08-31T04:42:49;31.60;;;19.13;;
24261;SDS011;12385;51.412;5.540;2023-08-31T04:45:16;32.03;;;19.10;;
24261;SDS011;12385;51.412;5.540;2023-08-31T04:47:42;29.23;;;19.23;;
24261;SDS011;12385;51.412;5.540;2023-08-31T04:50:07;26.88;;;18.02;;
24261;SDS011;12385;51.412;5.540;2023-08-31T04:52:33;29.30;;;18.95;;
24261;SDS011;12385;51.412;5.540;2023-08-31T04:55:02;30.88;;;19.13;;
24261;SDS011;12385;51.412;5.540;2023-08-31T04:57:32;30.40;;;18.77;;
24261;SDS011;12385;51.412;5.540;2023-08-31T04:59:58;27.17;;;18.70;;
24261;SDS011;12385;51.412;5.540;2023-08-31T05:02:23;29.52;;;19.48;;
24261;SDS011;12385;51.412;5.540;2023-08-31T05:04:49;27.08;;;17.52;;
24261;SDS011;12385;51.412;5.540;2023-08-31T05:07:15;25.63;;;16.90;;
24261;SDS011;12385;51.412;5.540;2023-08-31T05:09:40;27.30;;;18.05;;
24261;SDS011;12385;51.412;5.540;2023-08-31T05:12:06;26.20;;;17.85;;
24261;SDS011;12385;51.412;5.540;2023-08-31T05:14:32;26.08;;;17.20;;
24261;SDS011;12385;51.412;5.540;2023-08-31T05:17:02;30.13;;;18.67;;
24261;SDS011;12385;51.412;5.540;2023-08-31T05:19:29;24.50;;;17.33;;
24261;SDS011;12385;51.412;5.540;2023-08-31T05:21:55;27.30;;;17.30;;
24261;SDS011;12385;51.412;5.540;2023-08-31T05:24:21;25.02;;;17.05;;
24261;SDS011;12385;51.412;5.540;2023-08-31T05:26:47;23.38;;;16.67;;
24261;SDS011;12385;51.412;5.540;2023-08-31T05:29:14;27.38;;;16.48;;
24261;SDS011;12385;51.412;5.540;2023-08-31T05:31:39;22.85;;;15.73;;
24261;SDS011;12385;51.412;5.540;2023-08-31T05:34:05;26.80;;;16.20;;
24261;SDS011;12385;51.412;5.540;2023-08-31T05:36:30;31.35;;;16.95;;
24261;SDS011;12385;51.412;5.540;2023-08-31T05:38:56;19.02;;;15.38;;
24261;SDS011;12385;51.412;5.540;2023-08-31T05:41:22;21.48;;;14.70;;
24261;SDS011;12385;51.412;5.540;2023-08-31T05:43:48;26.20;;;16.10;;
24261;SDS011;12385;51.412;5.540;2023-08-31T05:46:13;22.85;;;14.73;;
24261;SDS011;12385;51.412;5.540;2023-08-31T05:48:39;22.67;;;14.77;;
24261;SDS011;12385;51.412;5.540;2023-08-31T05:51:05;26.08;;;15.60;;
24261;SDS011;12385;51.412;5.540;2023-08-31T05:53:30;22.55;;;15.48;;
24261;SDS011;12385;51.412;5.540;2023-08-31T05:55:56;23.52;;;15.15;;
24261;SDS011;12385;51.412;5.540;2023-08-31T05:58:33;22.48;;;14.63;;
24261;SDS011;12385;51.412;5.540;2023-08-31T06:01:00;21.27;;;14.13;;
24261;SDS011;12385;51.412;5.540;2023-08-31T06:03:27;27.90;;;14.85;;
24261;SDS011;12385;51.412;5.540;2023-08-31T06:05:54;25.00;;;14.27;;
24261;SDS011;12385;51.412;5.540;2023-08-31T06:08:20;19.50;;;12.95;;
24261;SDS011;12385;51.412;5.540;2023-08-31T06:10:46;18.52;;;13.80;;
24261;SDS011;12385;51.412;5.540;2023-08-31T06:13:11;22.85;;;14.32;;
24261;SDS011;12385;51.412;5.540;2023-08-31T06:15:37;22.75;;;13.57;;
24261;SDS011;12385;51.412;5.540;2023-08-31T06:18:03;20.50;;;13.10;;
24261;SDS011;12385;51.412;5.540;2023-08-31T06:20:30;20.42;;;13.18;;
24261;SDS011;12385;51.412;5.540;2023-08-31T06:22:56;23.08;;;14.20;;
24261;SDS011;12385;51.412;5.540;2023-08-31T06:25:21;20.05;;;12.65;;
24261;SDS011;12385;51.412;5.540;2023-08-31T06:27:48;23.15;;;12.27;;
24261;SDS011;12385;51.412;5.540;2023-08-31T06:30:13;22.10;;;11.68;;
24261;SDS011;12385;51.412;5.540;2023-08-31T06:32:45;22.63;;;12.35;;
24261;SDS011;12385;51.412;5.540;2023-08-31T06:35:12;19.30;;;11.35;;
24261;SDS011;12385;51.412;5.540;2023-08-31T06:37:40;19.17;;;11.10;;
24261;SDS011;12385;51.412;5.540;2023-08-31T06:40:06;23.63;;;12.35;;
24261;SDS011;12385;51.412;5.540;2023-08-31T06:42:36;18.85;;;11.60;;
24261;SDS011;12385;51.412;5.540;2023-08-31T06:45:05;22.58;;;11.27;;
24261;SDS011;12385;51.412;5.540;2023-08-31T06:47:32;19.17;;;11.27;;
24261;SDS011;12385;51.412;5.540;2023-08-31T06:49:58;20.23;;;11.20;;
24261;SDS011;12385;51.412;5.540;2023-08-31T06:52:27;16.88;;;10.80;;
24261;SDS011;12385;51.412;5.540;2023-08-31T06:54:53;17.97;;;10.87;;
24261;SDS011;12385;51.412;5.540;2023-08-31T06:57:20;19.83;;;10.70;;
24261;SDS011;12385;51.412;5.540;2023-08-31T06:59:47;15.18;;;9.57;;
24261;SDS011;12385;51.412;5.540;2023-08-31T07:02:13;17.98;;;10.02;;
24261;SDS011;12385;51.412;5.540;2023-08-31T07:04:38;19.50;;;10.30;;
24261;SDS011;12385;51.412;5.540;2023-08-31T07:07:05;14.27;;;9.35;;
24261;SDS011;12385;51.412;5.540;2023-08-31T07:09:31;19.73;;;9.52;;
24261;SDS011;12385;51.412;5.540;2023-08-31T07:11:56;22.27;;;9.55;;
24261;SDS011;12385;51.412;5.540;2023-08-31T07:14:23;17.65;;;9.00;;
24261;SDS011;12385;51.412;5.540;2023-08-31T07:16:50;15.55;;;8.40;;
24261;SDS011;12385;51.412;5.540;2023-08-31T07:19:15;13.82;;;8.00;;
24261;SDS011;12385;51.412;5.540;2023-08-31T07:21:41;16.77;;;8.10;;
24261;SDS011;12385;51.412;5.540;2023-08-31T07:24:07;14.27;;;7.93;;
24261;SDS011;12385;51.412;5.540;2023-08-31T07:26:33;18.25;;;7.97;;
24261;SDS011;12385;51.412;5.540;2023-08-31T07:28:59;14.93;;;7.47;;
24261;SDS011;12385;51.412;5.540;2023-08-31T07:31:26;14.30;;;7.50;;
24261;SDS011;12385;51.412;5.540;2023-08-31T07:33:52;12.60;;;7.55;;
24261;SDS011;12385;51.412;5.540;2023-08-31T07:36:17;12.60;;;7.35;;
24261;SDS011;12385;51.412;5.540;2023-08-31T07:38:43;14.35;;;7.40;;
24261;SDS011;12385;51.412;5.540;2023-08-31T07:41:09;11.95;;;6.57;;
24261;SDS011;12385;51.412;5.540;2023-08-31T07:43:35;17.15;;;6.68;;
24261;SDS011;12385;51.412;5.540;2023-08-31T07:46:01;14.60;;;6.28;;
24261;SDS011;12385;51.412;5.540;2023-08-31T07:48:26;12.98;;;6.63;;
24261;SDS011;12385;51.412;5.540;2023-08-31T07:50:52;14.15;;;6.80;;
24261;SDS011;12385;51.412;5.540;2023-08-31T07:53:17;14.35;;;5.95;;
24261;SDS011;12385;51.412;5.540;2023-08-31T07:55:50;12.57;;;6.38;;
24261;SDS011;12385;51.412;5.540;2023-08-31T07:58:20;12.82;;;5.80;;
24261;SDS011;12385;51.412;5.540;2023-08-31T08:00:46;10.68;;;5.63;;
24261;SDS011;12385;51.412;5.540;2023-08-31T08:03:12;13.30;;;6.05;;
24261;SDS011;12385;51.412;5.540;2023-08-31T08:05:39;15.43;;;5.90;;
24261;SDS011;12385;51.412;5.540;2023-08-31T08:08:06;12.63;;;5.40;;
24261;SDS011;12385;51.412;5.540;2023-08-31T08:10:32;17.38;;;5.80;;
24261;SDS011;12385;51.412;5.540;2023-08-31T08:12:57;15.13;;;5.38;;
24261;SDS011;12385;51.412;5.540;2023-08-31T08:15:23;9.57;;;5.35;;
24261;SDS011;12385;51.412;5.540;2023-08-31T08:17:49;14.55;;;5.45;;
24261;SDS011;12385;51.412;5.540;2023-08-31T08:20:15;11.40;;;5.00;;
24261;SDS011;12385;51.412;5.540;2023-08-31T08:22:41;14.55;;;4.95;;
24261;SDS011;12385;51.412;5.540;2023-08-31T08:25:06;12.77;;;4.75;;
24261;SDS011;12385;51.412;5.540;2023-08-31T08:27:32;14.95;;;5.25;;
24261;SDS011;12385;51.412;5.540;2023-08-31T08:30:01;10.95;;;5.15;;
24261;SDS011;12385;51.412;5.540;2023-08-31T08:32:27;11.85;;;5.25;;
24261;SDS011;12385;51.412;5.540;2023-08-31T08:34:53;13.55;;;5.30;;
24261;SDS011;12385;51.412;5.540;2023-08-31T08:37:18;15.30;;;5.85;;
24261;SDS011;12385;51.412;5.540;2023-08-31T08:39:49;13.77;;;5.40;;
24261;SDS011;12385;51.412;5.540;2023-08-31T08:42:15;9.93;;;5.50;;
24261;SDS011;12385;51.412;5.540;2023-08-31T08:44:43;16.80;;;6.28;;
24261;SDS011;12385;51.412;5.540;2023-08-31T08:47:10;15.15;;;6.82;;
24261;SDS011;12385;51.412;5.540;2023-08-31T08:49:37;18.17;;;6.40;;
24261;SDS011;12385;51.412;5.540;2023-08-31T08:52:03;14.25;;;5.95;;
24261;SDS011;12385;51.412;5.540;2023-08-31T08:54:29;12.82;;;5.50;;
24261;SDS011;12385;51.412;5.540;2023-08-31T08:56:56;13.68;;;5.25;;
24261;SDS011;12385;51.412;5.540;2023-08-31T08:59:21;14.73;;;4.53;;
24261;SDS011;12385;51.412;5.540;2023-08-31T09:01:49;12.00;;;4.32;;
24261;SDS011;12385;51.412;5.540;2023-08-31T09:04:15;9.85;;;4.22;;
24261;SDS011;12385;51.412;5.540;2023-08-31T09:06:41;18.55;;;4.00;;
24261;SDS011;12385;51.412;5.540;2023-08-31T09:09:07;13.00;;;4.30;;
24261;SDS011;12385;51.412;5.540;2023-08-31T09:11:34;7.68;;;3.70;;
24261;SDS011;12385;51.412;5.540;2023-08-31T09:14:13;13.18;;;3.95;;
24261;SDS011;12385;51.412;5.540;2023-08-31T09:16:40;11.07;;;3.63;;
24261;SDS011;12385;51.412;5.540;2023-08-31T09:19:21;11.43;;;3.75;;
24261;SDS011;12385;51.412;5.540;2023-08-31T09:21:55;11.25;;;3.45;;
24261;SDS011;12385;51.412;5.540;2023-08-31T09:24:21;8.82;;;3.05;;
24261;SDS011;12385;51.412;5.540;2023-08-31T09:26:53;7.53;;;3.92;;
24261;SDS011;12385;51.412;5.540;2023-08-31T09:29:20;12.05;;;4.07;;
24261;SDS011;12385;51.412;5.540;2023-08-31T09:31:46;8.50;;;3.75;;
24261;SDS011;12385;51.412;5.540;2023-08-31T09:34:12;9.80;;;3.97;;
24261;SDS011;12385;51.412;5.540;2023-08-31T09:39:08;10.32;;;3.60;;
24261;SDS011;12385;51.412;5.540;2023-08-31T09:41:34;10.02;;;3.53;;
24261;SDS011;12385;51.412;5.540;2023-08-31T09:44:16;6.78;;;3.20;;
24261;SDS011;12385;51.412;5.540;2023-08-31T09:46:43;9.60;;;3.35;;
24261;SDS011;12385;51.412;5.540;2023-08-31T09:49:10;10.13;;;3.53;;
24261;SDS011;12385;51.412;5.540;2023-08-31T09:51:39;10.23;;;3.40;;
24261;SDS011;12385;51.412;5.540;2023-08-31T09:54:08;9.57;;;3.40;;
24261;SDS011;12385;51.412;5.540;2023-08-31T09:56:37;8.93;;;2.90;;
24261;SDS011;12385;51.412;5.540;2023-08-31T09:59:05;10.07;;;2.80;;
24261;SDS011;12385;51.412;5.540;2023-08-31T10:01:31;5.95;;;2.60;;
24261;SDS011;12385;51.412;5.540;2023-08-31T10:03:57;9.70;;;2.80;;
24261;SDS011;12385;51.412;5.540;2023-08-31T10:06:24;11.57;;;3.10;;
24261;SDS011;12385;51.412;5.540;2023-08-31T10:08:51;8.57;;;3.13;;
24261;SDS011;12385;51.412;5.540;2023-08-31T10:11:17;8.60;;;3.10;;
24261;SDS011;12385;51.412;5.540;2023-08-31T10:13:43;7.00;;;2.60;;
24261;SDS011;12385;51.412;5.540;2023-08-31T10:16:12;6.25;;;2.00;;
24261;SDS011;12385;51.412;5.540;2023-08-31T10:18:38;8.40;;;2.33;;
24261;SDS011;12385;51.412;5.540;2023-08-31T10:21:04;9.15;;;2.20;;
24261;SDS011;12385;51.412;5.540;2023-08-31T10:23:30;9.60;;;2.40;;
24261;SDS011;12385;51.412;5.540;2023-08-31T10:28:23;8.88;;;2.47;;
24261;SDS011;12385;51.412;5.540;2023-08-31T10:33:30;5.95;;;2.15;;
24261;SDS011;12385;51.412;5.540;2023-08-31T10:35:57;7.50;;;2.40;;
24261;SDS011;12385;51.412;5.540;2023-08-31T10:38:32;6.63;;;2.40;;
24261;SDS011;12385;51.412;5.540;2023-08-31T10:43:46;6.32;;;1.92;;
24261;SDS011;12385;51.412;5.540;2023-08-31T10:46:29;7.30;;;2.10;;
24261;SDS011;12385;51.412;5.540;2023-08-31T10:51:35;5.03;;;2.08;;
24261;SDS011;12385;51.412;5.540;2023-08-31T10:59:43;5.28;;;1.63;;
24261;SDS011;12385;51.412;5.540;2023-08-31T11:05:02;9.57;;;2.30;;
24261;SDS011;12385;51.412;5.540;2023-08-31T11:07:39;7.13;;;2.10;;
24261;SDS011;12385;51.412;5.540;2023-08-31T11:10:19;5.07;;;2.08;;
24261;SDS011;12385;51.412;5.540;2023-08-31T11:12:47;5.63;;;1.70;;
24261;SDS011;12385;51.412;5.540;2023-08-31T11:15:14;7.53;;;1.90;;
24261;SDS011;12385;51.412;5.540;2023-08-31T11:17:41;7.30;;;1.80;;
24261;SDS011;12385;51.412;5.540;2023-08-31T11:20:17;6.85;;;1.70;;
24261;SDS011;12385;51.412;5.540;2023-08-31T11:22:48;9.43;;;2.05;;
24261;SDS011;12385;51.412;5.540;2023-08-31T11:25:15;12.93;;;1.98;;
24261;SDS011;12385;51.412;5.540;2023-08-31T11:27:52;4.55;;;1.75;;
24261;SDS011;12385;51.412;5.540;2023-08-31T11:30:18;6.28;;;2.05;;
24261;SDS011;12385;51.412;5.540;2023-08-31T11:32:46;7.20;;;2.20;;
24261;SDS011;12385;51.412;5.540;2023-08-31T11:35:13;4.65;;;1.67;;
24261;SDS011;12385;51.412;5.540;2023-08-31T11:37:39;6.50;;;1.77;;
24261;SDS011;12385;51.412;5.540;2023-08-31T11:40:07;8.30;;;2.28;;
24261;SDS011;12385;51.412;5.540;2023-08-31T11:42:34;8.73;;;2.08;;
24261;SDS011;12385;51.412;5.540;2023-08-31T11:44:59;7.15;;;2.20;;
24261;SDS011;12385;51.412;5.540;2023-08-31T11:47:25;7.43;;;2.13;;
24261;SDS011;12385;51.412;5.540;2023-08-31T11:49:51;7.70;;;2.45;;
24261;SDS011;12385;51.412;5.540;2023-08-31T11:52:17;4.65;;;1.90;;
24261;SDS011;12385;51.412;5.540;2023-08-31T11:54:44;6.68;;;1.63;;
24261;SDS011;12385;51.412;5.540;2023-08-31T11:57:11;5.68;;;1.52;;
24261;SDS011;12385;51.412;5.540;2023-08-31T11:59:37;5.57;;;1.55;;
24261;SDS011;12385;51.412;5.540;2023-08-31T12:02:07;7.22;;;2.10;;
24261;SDS011;12385;51.412;5.540;2023-08-31T12:04:33;4.93;;;1.75;;
24261;SDS011;12385;51.412;5.540;2023-08-31T12:07:10;6.28;;;1.83;;
24261;SDS011;12385;51.412;5.540;2023-08-31T12:09:36;5.38;;;1.90;;
24261;SDS011;12385;51.412;5.540;2023-08-31T12:12:02;7.00;;;2.00;;
24261;SDS011;12385;51.412;5.540;2023-08-31T12:14:30;5.93;;;2.10;;
24261;SDS011;12385;51.412;5.540;2023-08-31T12:17:06;6.03;;;1.90;;
24261;SDS011;12385;51.412;5.540;2023-08-31T12:19:33;7.32;;;2.00;;
24261;SDS011;12385;51.412;5.540;2023-08-31T12:22:02;5.77;;;2.10;;
24261;SDS011;12385;51.412;5.540;2023-08-31T12:24:27;5.07;;;1.77;;
24261;SDS011;12385;51.412;5.540;2023-08-31T12:26:53;7.75;;;2.00;;
24261;SDS011;12385;51.412;5.540;2023-08-31T12:29:19;6.15;;;1.80;;
24261;SDS011;12385;51.412;5.540;2023-08-31T12:31:45;5.03;;;1.70;;
24261;SDS011;12385;51.412;5.540;2023-08-31T12:34:10;4.20;;;1.60;;
24261;SDS011;12385;51.412;5.540;2023-08-31T12:36:36;4.65;;;1.50;;
24261;SDS011;12385;51.412;5.540;2023-08-31T12:39:03;4.93;;;1.50;;
24261;SDS011;12385;51.412;5.540;2023-08-31T12:41:35;5.55;;;1.80;;
24261;SDS011;12385;51.412;5.540;2023-08-31T12:44:01;4.88;;;1.60;;
24261;SDS011;12385;51.412;5.540;2023-08-31T12:46:28;4.53;;;1.70;;
24261;SDS011;12385;51.412;5.540;2023-08-31T12:48:54;6.07;;;1.58;;
24261;SDS011;12385;51.412;5.540;2023-08-31T12:51:20;4.65;;;1.40;;
24261;SDS011;12385;51.412;5.540;2023-08-31T12:53:46;6.57;;;1.60;;
24261;SDS011;12385;51.412;5.540;2023-08-31T12:56:11;7.63;;;2.03;;
24261;SDS011;12385;51.412;5.540;2023-08-31T12:58:37;6.60;;;1.63;;
24261;SDS011;12385;51.412;5.540;2023-08-31T13:01:04;4.50;;;1.60;;
24261;SDS011;12385;51.412;5.540;2023-08-31T13:03:30;5.15;;;1.60;;
24261;SDS011;12385;51.412;5.540;2023-08-31T13:05:55;7.15;;;1.67;;
24261;SDS011;12385;51.412;5.540;2023-08-31T13:08:21;6.50;;;1.42;;
24261;SDS011;12385;51.412;5.540;2023-08-31T13:10:50;4.85;;;1.83;;
24261;SDS011;12385;51.412;5.540;2023-08-31T13:13:18;6.55;;;2.15;;
24261;SDS011;12385;51.412;5.540;2023-08-31T13:15:45;5.30;;;2.40;;
24261;SDS011;12385;51.412;5.540;2023-08-31T13:18:11;7.43;;;2.70;;
24261;SDS011;12385;51.412;5.540;2023-08-31T13:20:37;6.55;;;2.55;;
24261;SDS011;12385;51.412;5.540;2023-08-31T13:23:03;8.52;;;3.00;;
24261;SDS011;12385;51.412;5.540;2023-08-31T13:25:30;8.35;;;3.70;;
24261;SDS011;12385;51.412;5.540;2023-08-31T13:27:56;7.57;;;3.42;;
24261;SDS011;12385;51.412;5.540;2023-08-31T13:30:22;7.85;;;3.88;;
24261;SDS011;12385;51.412;5.540;2023-08-31T13:32:47;7.30;;;4.05;;
24261;SDS011;12385;51.412;5.540;2023-08-31T13:35:13;10.50;;;4.80;;
24261;SDS011;12385;51.412;5.540;2023-08-31T13:37:38;7.60;;;4.10;;
24261;SDS011;12385;51.412;5.540;2023-08-31T13:40:05;7.40;;;4.53;;
24261;SDS011;12385;51.412;5.540;2023-08-31T13:42:36;9.60;;;5.00;;
24261;SDS011;12385;51.412;5.540;2023-08-31T13:45:04;9.13;;;5.10;;
24261;SDS011;12385;51.412;5.540;2023-08-31T13:47:33;7.55;;;5.00;;
24261;SDS011;12385;51.412;5.540;2023-08-31T13:49:59;13.43;;;4.97;;
24261;SDS011;12385;51.412;5.540;2023-08-31T13:52:25;9.77;;;5.00;;
24261;SDS011;12385;51.412;5.540;2023-08-31T13:54:51;8.07;;;4.40;;
24261;SDS011;12385;51.412;5.540;2023-08-31T13:57:17;13.15;;;5.97;;
24261;SDS011;12385;51.412;5.540;2023-08-31T13:59:43;12.95;;;4.80;;
24261;SDS011;12385;51.412;5.540;2023-08-31T14:02:10;10.55;;;4.47;;
24261;SDS011;12385;51.412;5.540;2023-08-31T14:04:35;8.70;;;4.05;;
24261;SDS011;12385;51.412;5.540;2023-08-31T14:07:01;9.70;;;4.03;;
24261;SDS011;12385;51.412;5.540;2023-08-31T14:09:27;9.38;;;4.03;;
24261;SDS011;12385;51.412;5.540;2023-08-31T14:11:53;11.15;;;3.70;;
24261;SDS011;12385;51.412;5.540;2023-08-31T14:14:22;7.18;;;4.10;;
24261;SDS011;12385;51.412;5.540;2023-08-31T14:16:49;7.82;;;3.40;;
24261;SDS011;12385;51.412;5.540;2023-08-31T14:19:14;11.70;;;4.10;;
24261;SDS011;12385;51.412;5.540;2023-08-31T14:21:40;8.73;;;4.00;;
24261;SDS011;12385;51.412;5.540;2023-08-31T14:24:06;9.95;;;3.63;;
24261;SDS011;12385;51.412;5.540;2023-08-31T14:26:32;6.82;;;3.40;;
24261;SDS011;12385;51.412;5.540;2023-08-31T14:28:58;6.78;;;3.10;;
24261;SDS011;12385;51.412;5.540;2023-08-31T14:31:23;6.40;;;2.90;;
24261;SDS011;12385;51.412;5.540;2023-08-31T14:33:49;7.38;;;2.85;;
24261;SDS011;12385;51.412;5.540;2023-08-31T14:36:17;6.90;;;3.00;;
24261;SDS011;12385;51.412;5.540;2023-08-31T14:38:42;6.35;;;3.15;;
24261;SDS011;12385;51.412;5.540;2023-08-31T14:41:10;7.85;;;3.00;;
24261;SDS011;12385;51.412;5.540;2023-08-31T14:43:36;6.70;;;2.83;;
24261;SDS011;12385;51.412;5.540;2023-08-31T14:46:02;7.10;;;2.85;;
24261;SDS011;12385;51.412;5.540;2023-08-31T14:48:28;8.18;;;3.35;;
24261;SDS011;12385;51.412;5.540;2023-08-31T14:50:55;6.78;;;3.00;;
24261;SDS011;12385;51.412;5.540;2023-08-31T14:53:23;7.22;;;3.20;;
24261;SDS011;12385;51.412;5.540;2023-08-31T14:55:49;6.95;;;2.78;;
24261;SDS011;12385;51.412;5.540;2023-08-31T14:58:15;5.65;;;2.53;;
24261;SDS011;12385;51.412;5.540;2023-08-31T15:00:40;11.48;;;2.75;;
24261;SDS011;12385;51.412;5.540;2023-08-31T15:03:06;9.15;;;3.10;;
24261;SDS011;12385;51.412;5.540;2023-08-31T15:05:32;6.22;;;2.63;;
24261;SDS011;12385;51.412;5.540;2023-08-31T15:07:59;7.28;;;2.85;;
24261;SDS011;12385;51.412;5.540;2023-08-31T15:10:26;7.38;;;2.70;;
24261;SDS011;12385;51.412;5.540;2023-08-31T15:12:52;6.38;;;2.70;;
24261;SDS011;12385;51.412;5.540;2023-08-31T15:15:23;9.20;;;3.25;;